Time;durP1;ratioP1;P1;durP2;ratioP2;P2;SDS_P1;SDS_P2;PMS_P1;PMS_P2;Temp;Humidity;BMP_temperature;BMP_pressure;BME280_temperature;BME280_humidity;BME280_pressure;Samples;Min_cycle;Max_cycle;Signal;HPM_P1;HPM_P2
2021/07/17 00:00:16;;;;;;;17.30;12.82;;;21.30;75.70;;;;;;5186336;27;27493;-60
2021/07/17 00:03:03;;;;;;;15.00;12.02;;;21.30;75.70;;;;;;5171239;27;27452;-60
2021/07/17 00:05:47;;;;;;;13.40;10.63;;;21.30;75.70;;;;;;5171073;27;27487;-60
2021/07/17 00:08:32;;;;;;;18.50;13.10;;;21.30;75.70;;;;;;5187186;27;27447;-60
2021/07/17 00:11:17;;;;;;;17.13;13.45;;;21.20;75.70;;;;;;5185966;27;27483;-60
2021/07/17 00:14:02;;;;;;;14.98;12.25;;;21.20;75.90;;;;;;5186729;27;27951;-60
2021/07/17 00:16:46;;;;;;;19.30;13.65;;;21.20;75.90;;;;;;5171263;27;27441;-60
2021/07/17 00:19:31;;;;;;;16.15;11.82;;;21.20;76.00;;;;;;5182566;27;27471;-60
2021/07/17 00:22:15;;;;;;;20.02;15.38;;;21.20;76.00;;;;;;5187144;27;27486;-60
2021/07/17 00:25:00;;;;;;;15.95;12.27;;;21.20;76.00;;;;;;5187204;27;27432;-60
2021/07/17 00:27:44;;;;;;;16.75;12.82;;;21.20;76.00;;;;;;5186978;27;27518;-60
2021/07/17 00:30:29;;;;;;;17.02;13.02;;;21.20;75.90;;;;;;5187036;27;27493;-60
2021/07/17 00:33:14;;;;;;;18.92;13.30;;;21.20;76.30;;;;;;5187312;27;27447;-60
2021/07/17 00:35:59;;;;;;;24.23;15.65;;;21.20;76.10;;;;;;5182648;27;27603;-60
2021/07/17 00:38:44;;;;;;;17.75;13.02;;;21.10;76.10;;;;;;5186181;27;27470;-60
2021/07/17 00:41:29;;;;;;;22.58;16.73;;;21.20;76.40;;;;;;5186967;27;27378;-60
2021/07/17 00:44:13;;;;;;;19.30;15.48;;;21.10;76.40;;;;;;5185971;27;27509;-60
2021/07/17 00:46:58;;;;;;;22.27;15.68;;;21.10;76.50;;;;;;5185960;27;27475;-60
2021/07/17 00:49:42;;;;;;;21.73;16.40;;;21.10;76.40;;;;;;5185920;27;27410;-60
2021/07/17 00:52:27;;;;;;;21.88;15.50;;;21.10;76.30;;;;;;5186567;27;27402;-60
2021/07/17 00:55:12;;;;;;;21.70;15.50;;;21.10;76.10;;;;;;5171069;27;27334;-60
2021/07/17 00:57:56;;;;;;;23.55;17.30;;;21.10;76.00;;;;;;5187430;27;27847;-60
2021/07/17 01:00:41;;;;;;;19.83;15.02;;;21.00;76.00;;;;;;5173947;27;27430;-60
2021/07/17 01:03:26;;;;;;;24.35;17.35;;;21.00;76.20;;;;;;5189387;27;27394;-60
2021/07/17 01:06:10;;;;;;;22.77;15.40;;;21.00;76.30;;;;;;5189005;27;27344;-60
2021/07/17 01:08:55;;;;;;;23.95;16.60;;;21.00;76.30;;;;;;5189892;27;27371;-60
2021/07/17 01:11:39;;;;;;;20.38;14.23;;;21.00;76.30;;;;;;5189310;27;27495;-60
2021/07/17 01:14:25;;;;;;;25.50;16.60;;;21.00;76.00;;;;;;5188844;27;27402;-60
2021/07/17 01:17:09;;;;;;;24.92;17.80;;;20.90;76.20;;;;;;5171073;27;27396;-60
2021/07/17 01:19:54;;;;;;;22.02;17.20;;;20.90;76.40;;;;;;5189427;27;27338;-60
2021/07/17 01:22:39;;;;;;;20.13;15.52;;;20.90;76.60;;;;;;5189576;27;27427;-60
2021/07/17 01:25:25;;;;;;;19.40;15.02;;;20.90;76.60;;;;;;5189485;27;27411;-60
2021/07/17 01:28:10;;;;;;;20.02;15.05;;;20.90;76.60;;;;;;5189439;27;27337;-60
2021/07/17 01:30:54;;;;;;;24.55;16.35;;;20.80;76.60;;;;;;5185610;27;27852;-60
2021/07/17 01:33:40;;;;;;;18.40;14.85;;;20.80;76.50;;;;;;5188427;27;27402;-60
2021/07/17 01:36:25;;;;;;;25.48;16.70;;;20.80;76.70;;;;;;5189291;27;27381;-60
2021/07/17 01:39:09;;;;;;;19.90;15.93;;;20.80;76.70;;;;;;5189203;27;27368;-60
2021/07/17 01:41:53;;;;;;;23.52;15.05;;;20.80;76.90;;;;;;5189315;27;27846;-60
2021/07/17 01:44:44;;;;;;;24.50;17.75;;;20.80;76.70;;;;;;5189041;27;27406;-60
2021/07/17 01:47:29;;;;;;;19.10;14.85;;;20.80;77.00;;;;;;5188514;27;27448;-60
2021/07/17 01:50:13;;;;;;;22.23;15.88;;;20.80;77.30;;;;;;5188227;27;27555;-60
2021/07/17 01:53:02;;;;;;;23.13;17.38;;;20.80;77.20;;;;;;5188337;27;27523;-60
2021/07/17 01:55:47;;;;;;;25.65;16.10;;;20.80;77.40;;;;;;5188484;27;27684;-60
2021/07/17 01:58:32;;;;;;;20.33;15.48;;;20.80;77.40;;;;;;5187578;27;27428;-60
2021/07/17 02:01:16;;;;;;;20.52;13.77;;;20.80;77.30;;;;;;5173310;27;27441;-60
2021/07/17 02:04:01;;;;;;;23.58;16.55;;;20.70;77.20;;;;;;5188906;27;27879;-60
2021/07/17 02:06:46;;;;;;;23.75;16.02;;;20.80;77.40;;;;;;5188695;27;27457;-59
2021/07/17 02:09:31;;;;;;;19.92;15.82;;;20.80;77.40;;;;;;5187566;27;27479;-60
2021/07/17 02:12:16;;;;;;;22.13;16.40;;;20.70;77.50;;;;;;5169678;27;27416;-60
2021/07/17 02:15:01;;;;;;;22.27;15.30;;;20.80;77.60;;;;;;5188546;27;27489;-60
2021/07/17 02:17:46;;;;;;;20.70;15.80;;;20.80;77.60;;;;;;5188755;27;27421;-60
2021/07/17 02:20:31;;;;;;;21.92;16.15;;;20.70;77.60;;;;;;5187835;27;27458;-60
2021/07/17 02:23:15;;;;;;;17.75;14.80;;;20.70;77.70;;;;;;5188359;27;27437;-60
2021/07/17 02:26:00;;;;;;;25.58;16.20;;;20.70;77.70;;;;;;5188513;27;27441;-59
2021/07/17 02:28:44;;;;;;;22.98;16.75;;;20.70;77.60;;;;;;5187423;27;27473;-60
2021/07/17 02:31:29;;;;;;;25.38;17.17;;;20.70;77.80;;;;;;5169261;27;27513;-60
2021/07/17 02:34:14;;;;;;;17.73;13.45;;;20.70;77.70;;;;;;5188222;27;27429;-60
2021/07/17 02:36:58;;;;;;;20.25;16.70;;;20.70;77.80;;;;;;5187593;27;27429;-60
2021/07/17 02:39:42;;;;;;;22.40;17.73;;;20.70;77.90;;;;;;5188352;27;27334;-60
2021/07/17 02:42:27;;;;;;;23.45;16.70;;;20.70;77.90;;;;;;5188358;27;27346;-60
2021/07/17 02:45:12;;;;;;;20.80;16.08;;;20.70;77.90;;;;;;5188068;27;27431;-58
2021/07/17 02:47:57;;;;;;;26.48;18.65;;;20.70;77.90;;;;;;5187343;27;27430;-60
2021/07/17 02:50:42;;;;;;;24.27;17.75;;;20.70;77.90;;;;;;5187450;27;27407;-60
2021/07/17 02:53:26;;;;;;;23.88;17.10;;;20.70;78.00;;;;;;5187206;27;27404;-60
2021/07/17 02:56:11;;;;;;;17.58;14.25;;;20.70;78.00;;;;;;5188097;27;27380;-60
2021/07/17 02:58:56;;;;;;;19.20;16.05;;;20.70;78.00;;;;;;5186723;27;27395;-59
2021/07/17 03:01:40;;;;;;;26.27;17.83;;;20.70;78.00;;;;;;5187943;27;27404;-60
2021/07/17 03:04:24;;;;;;;24.98;17.73;;;20.70;78.00;;;;;;5187134;27;27370;-60
2021/07/17 03:07:09;;;;;;;22.88;18.25;;;20.70;78.10;;;;;;5186841;27;27362;-60
2021/07/17 03:09:54;;;;;;;20.60;16.27;;;20.70;78.20;;;;;;5186986;27;27966;-60
2021/07/17 03:12:38;;;;;;;25.25;17.60;;;20.70;78.10;;;;;;5186812;27;27358;-60
2021/07/17 03:15:23;;;;;;;21.75;17.20;;;20.70;78.10;;;;;;5183536;27;27407;-59
2021/07/17 03:18:08;;;;;;;27.52;18.50;;;20.70;78.20;;;;;;5187506;27;27475;-60
2021/07/17 03:20:53;;;;;;;23.20;16.60;;;20.70;78.60;;;;;;5186213;27;27358;-60
2021/07/17 03:23:38;;;;;;;23.55;15.77;;;20.60;78.30;;;;;;5187731;27;27539;-60
2021/07/17 03:26:23;;;;;;;26.40;17.98;;;20.70;78.50;;;;;;5154088;27;27397;-60
2021/07/17 03:29:08;;;;;;;29.95;18.05;;;20.60;78.30;;;;;;5187368;27;27474;-60
2021/07/17 03:31:53;;;;;;;22.05;16.10;;;20.60;78.30;;;;;;5183158;27;27450;-60
2021/07/17 03:34:37;;;;;;;22.02;16.63;;;20.60;78.30;;;;;;5187231;27;27425;-60
2021/07/17 03:37:22;;;;;;;24.38;16.73;;;20.60;78.50;;;;;;5183336;27;27408;-60
2021/07/17 03:40:08;;;;;;;24.38;17.55;;;20.60;78.60;;;;;;5187175;27;27394;-59
2021/07/17 03:42:52;;;;;;;26.92;16.90;;;20.60;78.60;;;;;;5187450;27;27433;-60
2021/07/17 03:45:37;;;;;;;23.42;17.33;;;20.60;78.60;;;;;;5185937;27;27445;-60
2021/07/17 03:48:22;;;;;;;26.85;17.85;;;20.60;78.70;;;;;;5187169;27;27408;-60
2021/07/17 03:51:07;;;;;;;25.83;17.55;;;20.60;78.80;;;;;;5187146;27;27507;-60
2021/07/17 03:53:51;;;;;;;23.45;16.38;;;20.60;78.80;;;;;;5187217;27;27418;-60
2021/07/17 03:56:36;;;;;;;24.92;18.30;;;20.60;78.90;;;;;;5186455;27;27478;-60
2021/07/17 03:59:20;;;;;;;26.40;19.27;;;20.60;79.00;;;;;;5186013;27;27048;-60
2021/07/17 04:02:05;;;;;;;26.60;17.33;;;20.60;79.00;;;;;;5186978;27;27408;-60
2021/07/17 04:04:50;;;;;;;19.83;14.52;;;20.60;79.00;;;;;;5186258;27;27876;-60
2021/07/17 04:07:34;;;;;;;29.92;19.60;;;20.60;79.10;;;;;;5186893;27;27497;-59
2021/07/17 04:10:19;;;;;;;23.38;15.38;;;20.60;79.00;;;;;;5167918;27;27458;-60
2021/07/17 04:13:05;;;;;;;25.20;17.00;;;20.60;79.00;;;;;;5187001;27;27458;-60
2021/07/17 04:15:50;;;;;;;28.73;19.48;;;20.50;79.00;;;;;;5183594;27;27472;-60
2021/07/17 04:18:34;;;;;;;26.88;20.00;;;20.60;79.00;;;;;;5185811;27;27601;-60
2021/07/17 04:21:19;;;;;;;31.98;19.60;;;20.50;79.10;;;;;;5182812;27;27320;-60
2021/07/17 04:24:03;;;;;;;27.27;19.10;;;20.50;79.20;;;;;;5186936;27;27451;-59
2021/07/17 04:26:48;;;;;;;25.40;20.23;;;20.50;79.20;;;;;;5186686;27;27401;-60
2021/07/17 04:29:33;;;;;;;32.38;21.70;;;20.50;79.20;;;;;;5186447;27;27427;-60
2021/07/17 04:32:18;;;;;;;30.60;19.10;;;20.50;79.30;;;;;;5187118;27;27371;-60
2021/07/17 04:35:07;;;;;;;32.28;20.67;;;20.50;79.30;;;;;;5191300;27;27325;-60
2021/07/17 04:37:51;;;;;;;31.42;19.75;;;20.50;79.50;;;;;;5191158;27;27405;-60
2021/07/17 04:40:36;;;;;;;30.25;20.50;;;20.50;79.50;;;;;;5189782;27;27425;-60
2021/07/17 04:43:20;;;;;;;30.02;18.98;;;20.50;79.60;;;;;;5190869;27;27412;-60
2021/07/17 04:46:05;;;;;;;30.35;19.88;;;20.50;79.70;;;;;;5190820;27;27463;-60
2021/07/17 04:48:49;;;;;;;26.90;18.88;;;20.50;79.90;;;;;;5190986;27;27448;-60
2021/07/17 04:51:34;;;;;;;25.23;18.48;;;20.50;79.90;;;;;;5190610;27;27457;-60
2021/07/17 04:54:19;;;;;;;26.25;18.92;;;20.50;80.00;;;;;;5190230;27;27403;-61
2021/07/17 04:57:03;;;;;;;29.38;19.95;;;20.50;80.00;;;;;;5190595;27;27405;-60
2021/07/17 04:59:48;;;;;;;27.92;18.48;;;20.50;80.20;;;;;;5189961;27;27687;-60
2021/07/17 05:02:32;;;;;;;28.50;20.33;;;20.50;80.40;;;;;;5190797;27;27389;-59
2021/07/17 05:05:19;;;;;;;26.02;18.23;;;20.50;80.60;;;;;;5186732;27;27364;-60
2021/07/17 05:08:04;;;;;;;33.17;19.55;;;20.50;80.70;;;;;;5189977;27;27487;-60
2021/07/17 05:10:49;;;;;;;30.40;19.20;;;20.50;80.60;;;;;;5186998;27;27388;-59
2021/07/17 05:13:34;;;;;;;25.35;17.33;;;20.50;80.70;;;;;;5190312;27;27421;-60
2021/07/17 05:16:19;;;;;;;28.55;20.15;;;20.50;80.60;;;;;;5190628;27;27413;-60
2021/07/17 05:19:03;;;;;;;28.38;19.33;;;20.50;80.60;;;;;;5190346;27;27376;-60
2021/07/17 05:21:47;;;;;;;24.00;17.67;;;20.50;80.90;;;;;;5190440;27;27849;-60
2021/07/17 05:24:32;;;;;;;29.58;16.85;;;20.50;81.00;;;;;;5189647;27;27316;-60
2021/07/17 05:27:16;;;;;;;24.48;17.55;;;20.50;80.70;;;;;;5171138;27;27395;-60
2021/07/17 05:30:02;;;;;;;30.80;19.10;;;20.60;80.80;;;;;;5190276;27;27322;-60
2021/07/17 05:32:47;;;;;;;30.63;20.02;;;20.60;81.10;;;;;;5189941;27;27330;-60
2021/07/17 05:35:31;;;;;;;26.48;19.30;;;20.60;81.10;;;;;;5189846;27;27326;-60
2021/07/17 05:38:16;;;;;;;26.13;19.35;;;20.60;81.30;;;;;;5189140;27;27395;-59
2021/07/17 05:41:01;;;;;;;26.38;19.17;;;20.60;81.50;;;;;;5189946;27;27384;-60
2021/07/17 05:43:46;;;;;;;22.63;16.92;;;20.60;81.70;;;;;;5189519;27;27405;-60
2021/07/17 05:46:30;;;;;;;23.00;17.30;;;20.60;81.70;;;;;;5190047;27;27346;-60
2021/07/17 05:49:15;;;;;;;26.67;18.83;;;20.60;81.70;;;;;;5189380;27;27346;-60
2021/07/17 05:52:00;;;;;;;26.55;17.42;;;20.60;81.90;;;;;;5189692;27;27384;-60
2021/07/17 05:54:44;;;;;;;23.00;17.15;;;20.60;82.00;;;;;;5189651;27;27371;-60
2021/07/17 05:57:31;;;;;;;28.42;18.23;;;20.60;82.10;;;;;;5189872;27;27380;-60
2021/07/17 06:00:19;;;;;;;26.40;19.23;;;20.60;82.10;;;;;;5189148;27;27388;-60
2021/07/17 06:03:04;;;;;;;26.00;17.83;;;20.60;82.10;;;;;;5188255;27;27475;-60
2021/07/17 06:05:51;;;;;;;20.58;16.35;;;20.70;82.10;;;;;;5185562;27;27701;-60
2021/07/17 06:08:36;;;;;;;29.52;16.70;;;20.70;82.40;;;;;;5189409;27;27391;-60
2021/07/17 06:11:20;;;;;;;19.50;14.52;;;20.70;82.40;;;;;;5188729;27;27418;-59
2021/07/17 06:14:06;;;;;;;25.27;18.25;;;20.70;82.60;;;;;;5189355;27;27546;-60
2021/07/17 06:16:51;;;;;;;28.48;17.75;;;20.70;82.70;;;;;;5189315;27;27451;-59
2021/07/17 06:19:35;;;;;;;25.98;17.17;;;20.70;82.40;;;;;;5189594;27;27429;-60
2021/07/17 06:22:20;;;;;;;19.45;14.68;;;20.70;82.80;;;;;;5188725;27;27483;-60
2021/07/17 06:25:05;;;;;;;23.23;15.45;;;20.70;82.90;;;;;;5189337;27;27473;-60
2021/07/17 06:27:50;;;;;;;26.45;16.17;;;20.70;83.30;;;;;;5173745;27;27459;-60
2021/07/17 06:30:34;;;;;;;19.52;14.23;;;20.70;83.10;;;;;;5188491;27;27574;-60
2021/07/17 06:33:19;;;;;;;21.23;15.52;;;20.80;82.80;;;;;;5185070;27;27410;-60
2021/07/17 06:36:04;;;;;;;23.63;16.33;;;20.80;83.00;;;;;;5189322;27;27573;-60
2021/07/17 06:38:48;;;;;;;21.23;16.10;;;20.80;83.50;;;;;;5185126;27;27417;-60
2021/07/17 06:41:33;;;;;;;21.80;16.10;;;20.80;83.60;;;;;;5189310;27;27408;-60
2021/07/17 06:44:17;;;;;;;24.60;16.15;;;20.80;83.90;;;;;;5189061;27;27399;-59
2021/07/17 06:47:02;;;;;;;21.85;15.38;;;20.80;83.70;;;;;;5188516;27;27380;-60
2021/07/17 06:49:47;;;;;;;23.05;15.80;;;20.80;83.90;;;;;;5188941;27;27369;-59
2021/07/17 06:52:33;;;;;;;19.67;15.70;;;20.90;83.90;;;;;;5188160;27;27338;-59
2021/07/17 06:55:18;;;;;;;25.73;16.58;;;20.80;83.90;;;;;;5187187;27;27381;-60
2021/07/17 06:58:03;;;;;;;19.67;14.88;;;20.90;83.90;;;;;;5188022;27;27314;-59
2021/07/17 07:00:48;;;;;;;24.00;15.93;;;20.80;84.10;;;;;;5188620;27;27972;-60
2021/07/17 07:03:33;;;;;;;24.73;15.60;;;20.90;83.90;;;;;;5188627;27;27354;-60
2021/07/17 07:06:17;;;;;;;22.30;16.05;;;20.90;84.10;;;;;;5188907;27;27411;-60
2021/07/17 07:09:01;;;;;;;21.88;15.68;;;20.90;84.20;;;;;;5188891;27;27318;-60
2021/07/17 07:11:46;;;;;;;19.20;13.02;;;20.90;84.00;;;;;;5188448;27;27369;-60
2021/07/17 07:14:30;;;;;;;24.52;15.10;;;20.90;83.90;;;;;;5187622;27;27408;-60
2021/07/17 07:17:14;;;;;;;21.63;14.70;;;21.00;84.20;;;;;;5187735;27;27384;-60
2021/07/17 07:19:59;;;;;;;22.60;15.48;;;21.00;83.90;;;;;;5187829;27;27356;-60
2021/07/17 07:22:44;;;;;;;20.30;13.70;;;21.00;84.00;;;;;;5188602;27;27367;-60
2021/07/17 07:25:29;;;;;;;21.92;15.30;;;21.00;84.50;;;;;;5187715;27;27312;-60
2021/07/17 07:28:14;;;;;;;21.27;13.85;;;21.00;84.20;;;;;;5188303;27;27386;-60
2021/07/17 07:30:59;;;;;;;25.08;15.90;;;21.10;84.50;;;;;;5188270;27;27407;-60
2021/07/17 07:33:43;;;;;;;27.85;16.20;;;21.10;84.40;;;;;;5187273;27;27427;-60
2021/07/17 07:36:28;;;;;;;21.20;15.45;;;21.10;84.30;;;;;;5188235;27;27405;-59
2021/07/17 07:39:13;;;;;;;25.55;15.60;;;21.10;84.00;;;;;;5187572;27;27447;-60
2021/07/17 07:41:58;;;;;;;19.27;14.82;;;21.10;84.00;;;;;;5187203;27;27429;-60
2021/07/17 07:44:43;;;;;;;26.80;15.82;;;21.10;84.40;;;;;;5188136;27;27886;-60
2021/07/17 07:47:28;;;;;;;20.10;15.38;;;21.20;84.80;;;;;;5188144;27;27499;-60
2021/07/17 07:50:13;;;;;;;23.80;15.65;;;21.20;85.00;;;;;;5187886;27;27529;-60
2021/07/17 07:52:59;;;;;;;16.02;12.38;;;21.20;84.40;;;;;;5186865;27;27436;-60
2021/07/17 07:55:44;;;;;;;25.13;14.70;;;21.20;84.70;;;;;;5188012;27;27406;-60
2021/07/17 07:58:29;;;;;;;23.05;15.00;;;21.20;84.90;;;;;;5186506;27;27414;-60
2021/07/17 08:01:14;;;;;;;22.67;14.57;;;21.30;85.00;;;;;;5188128;27;27342;-60
2021/07/17 08:03:58;;;;;;;19.10;14.85;;;21.30;84.80;;;;;;5187911;27;27382;-60
2021/07/17 08:06:43;;;;;;;20.85;15.23;;;21.30;84.30;;;;;;5188356;27;27420;-60
2021/07/17 08:09:28;;;;;;;22.50;14.85;;;21.30;85.00;;;;;;5191388;27;27426;-60
2021/07/17 08:12:12;;;;;;;15.35;11.60;;;21.40;85.30;;;;;;5191061;27;27408;-60
2021/07/17 08:14:56;;;;;;;19.20;12.95;;;21.40;85.00;;;;;;5191382;27;27406;-60
2021/07/17 08:17:41;;;;;;;14.73;11.70;;;21.40;85.00;;;;;;5191561;27;27403;-60
2021/07/17 08:20:26;;;;;;;19.92;14.23;;;21.40;85.00;;;;;;5190899;27;27425;-60
2021/07/17 08:23:11;;;;;;;15.85;12.57;;;21.40;84.80;;;;;;5191568;27;27486;-60
2021/07/17 08:25:56;;;;;;;20.73;15.63;;;21.50;85.00;;;;;;5191462;27;27459;-60
2021/07/17 08:28:40;;;;;;;18.05;14.60;;;21.50;85.20;;;;;;5191327;27;27878;-60
2021/07/17 08:31:25;;;;;;;21.48;15.27;;;21.50;85.20;;;;;;5191042;27;27428;-60
2021/07/17 08:34:10;;;;;;;25.63;16.50;;;21.50;85.50;;;;;;5191343;27;27408;-60
2021/07/17 08:36:55;;;;;;;24.50;16.25;;;21.50;85.60;;;;;;5190515;27;27520;-60
2021/07/17 08:39:39;;;;;;;22.67;16.08;;;21.50;85.10;;;;;;5190880;27;27537;-60
2021/07/17 08:42:25;;;;;;;23.27;15.82;;;21.60;84.90;;;;;;5191005;27;27485;-60
2021/07/17 08:45:11;;;;;;;23.10;15.85;;;21.60;85.10;;;;;;5190168;27;27475;-60
2021/07/17 08:47:56;;;;;;;22.80;15.48;;;21.60;85.20;;;;;;5174319;27;27443;-60
2021/07/17 08:50:41;;;;;;;23.98;16.20;;;21.60;85.10;;;;;;5189783;27;27975;-60
2021/07/17 08:53:26;;;;;;;18.02;15.15;;;21.60;85.90;;;;;;5190135;27;27483;-60
2021/07/17 08:56:11;;;;;;;25.27;16.05;;;21.60;86.20;;;;;;5190301;27;27417;-60
2021/07/17 08:58:55;;;;;;;17.92;13.35;;;21.70;85.70;;;;;;5190094;27;27439;-60
2021/07/17 09:01:40;;;;;;;18.63;13.88;;;21.70;86.70;;;;;;5186597;27;27443;-60
2021/07/17 09:04:25;;;;;;;16.02;12.75;;;21.70;86.80;;;;;;5190821;27;27437;-60
2021/07/17 09:07:10;;;;;;;14.35;12.85;;;21.70;86.60;;;;;;5190530;27;27522;-60
2021/07/17 09:09:55;;;;;;;13.82;11.38;;;21.70;87.00;;;;;;5189634;27;27416;-60
2021/07/17 09:12:39;;;;;;;17.13;12.00;;;21.80;87.00;;;;;;5190631;27;27413;-60
2021/07/17 09:15:24;;;;;;;17.65;13.32;;;21.80;87.00;;;;;;5189775;27;27601;-60
2021/07/17 09:18:09;;;;;;;14.07;11.27;;;21.90;87.00;;;;;;5189522;27;27558;-59
2021/07/17 09:21:04;;;;;;;15.05;10.38;;;22.00;86.50;;;;;;5190611;27;27322;-60
2021/07/17 09:23:53;;;;;;;12.90;11.32;;;22.00;87.20;;;;;;5190246;27;27870;-60
2021/07/17 09:26:40;;;;;;;16.67;11.57;;;22.10;87.90;;;;;;5186337;27;27448;-60
2021/07/17 09:29:37;;;;;;;17.60;13.13;;;22.20;87.80;;;;;;5186096;27;27313;-60
2021/07/17 09:32:22;;;;;;;16.02;12.75;;;22.20;87.20;;;;;;5190522;27;27368;-60
2021/07/17 09:35:11;;;;;;;20.75;13.77;;;22.20;85.90;;;;;;5190059;27;27882;-61
2021/07/17 09:37:56;;;;;;;19.42;13.73;;;22.20;86.10;;;;;;5190045;27;27471;-60
2021/07/17 09:40:49;;;;;;;21.35;15.25;;;22.20;86.00;;;;;;5189272;27;27402;-60
2021/07/17 09:43:42;;;;;;;19.55;14.55;;;22.10;85.10;;;;;;5189079;27;27399;-60
2021/07/17 09:46:27;;;;;;;20.35;14.15;;;22.10;84.20;;;;;;5156523;27;27379;-60
2021/07/17 09:49:12;;;;;;;16.70;13.52;;;22.00;84.00;;;;;;5190151;27;27454;-60
2021/07/17 09:52:13;;;;;;;19.13;14.38;;;22.00;85.30;;;;;;5173957;27;27379;-60
2021/07/17 09:55:05;;;;;;;15.13;12.45;;;22.00;85.50;;;;;;5188936;27;27471;-60
2021/07/17 09:57:50;;;;;;;16.77;13.10;;;22.00;85.50;;;;;;5189240;27;27401;-60
2021/07/17 10:00:35;;;;;;;19.02;15.43;;;22.00;86.20;;;;;;5189678;27;27539;-60
2021/07/17 10:03:20;;;;;;;17.42;13.40;;;22.00;86.30;;;;;;5185597;27;27466;-60
2021/07/17 10:06:04;;;;;;;23.83;15.75;;;22.00;85.80;;;;;;5189854;27;27407;-60
2021/07/17 10:08:48;;;;;;;21.25;16.83;;;22.00;86.50;;;;;;5189074;27;27320;-60
2021/07/17 10:11:33;;;;;;;18.80;14.50;;;22.00;86.10;;;;;;5188352;27;27345;-60
2021/07/17 10:14:21;;;;;;;21.02;15.30;;;22.00;86.30;;;;;;5188977;27;27465;-60
2021/07/17 10:17:10;;;;;;;20.20;14.35;;;22.10;86.60;;;;;;5189411;27;27466;-60
2021/07/17 10:19:55;;;;;;;22.92;16.13;;;22.10;86.20;;;;;;5189248;27;27886;-60
2021/07/17 10:22:40;;;;;;;26.38;16.63;;;22.20;86.80;;;;;;5188845;27;27484;-60
2021/07/17 10:25:25;;;;;;;19.50;14.93;;;22.20;87.10;;;;;;5189588;27;27396;-60
2021/07/17 10:28:10;;;;;;;23.42;14.63;;;22.20;87.30;;;;;;5188786;27;27370;-60
2021/07/17 10:30:54;;;;;;;26.48;15.38;;;22.30;87.30;;;;;;5188082;27;27920;-61
2021/07/17 10:33:40;;;;;;;22.83;15.20;;;22.30;87.80;;;;;;5187727;27;27422;-60
2021/07/17 10:36:25;;;;;;;20.42;13.48;;;22.40;87.90;;;;;;5189343;27;27371;-60
2021/07/17 10:39:10;;;;;;;20.00;12.70;;;22.40;88.20;;;;;;5170339;27;27360;-60
2021/07/17 10:41:55;;;;;;;17.20;14.02;;;22.40;88.20;;;;;;5188126;27;27388;-61
2021/07/17 10:44:43;;;;;;;19.70;14.70;;;22.40;87.70;;;;;;5187997;27;27326;-60
2021/07/17 10:47:38;;;;;;;19.40;15.10;;;22.40;87.20;;;;;;5188857;27;27355;-60
2021/07/17 10:50:30;;;;;;;21.92;14.82;;;22.40;86.80;;;;;;5188728;27;27372;-60
2021/07/17 10:53:53;;;;;;;21.25;14.82;;;22.40;86.80;;;;;;5187945;27;27477;-60
2021/07/17 10:56:42;;;;;;;19.95;14.15;;;22.40;86.60;;;;;;5145267;27;27537;-61
2021/07/17 10:59:30;;;;;;;19.52;13.68;;;22.40;86.20;;;;;;5144216;27;27506;-60
2021/07/17 11:02:15;;;;;;;18.05;13.20;;;22.40;86.30;;;;;;5129695;27;27537;-60
2021/07/17 11:05:01;;;;;;;24.25;14.63;;;22.40;86.70;;;;;;5144834;27;27554;-61
2021/07/17 11:07:50;;;;;;;19.55;14.57;;;22.50;86.90;;;;;;5130224;27;27482;-60
2021/07/17 11:10:41;;;;;;;20.65;14.98;;;22.50;87.00;;;;;;5130491;27;27366;-60
2021/07/17 11:13:34;;;;;;;18.60;12.38;;;22.60;86.70;;;;;;5115848;27;27521;-60
2021/07/17 11:16:41;;;;;;;16.65;13.23;;;22.60;87.10;;;;;;5115908;27;28051;-61
2021/07/17 11:19:27;;;;;;;19.83;14.25;;;22.70;87.60;;;;;;5144647;27;27491;-61
2021/07/17 11:22:12;;;;;;;23.92;15.20;;;22.80;88.10;;;;;;5144718;27;26950;-61
2021/07/17 11:25:04;;;;;;;19.23;14.80;;;22.90;88.30;;;;;;5130125;27;27508;-60
2021/07/17 11:27:48;;;;;;;15.40;11.88;;;22.90;88.40;;;;;;5144558;27;27482;-60
2021/07/17 11:30:36;;;;;;;19.20;13.43;;;23.00;88.30;;;;;;5162733;27;27620;-61
2021/07/17 11:33:21;;;;;;;17.60;12.80;;;23.00;87.90;;;;;;5188415;27;27402;-61
2021/07/17 11:36:26;;;;;;;14.40;12.18;;;23.10;87.70;;;;;;5188347;27;27457;-60
2021/07/17 11:39:15;;;;;;;16.40;12.52;;;23.10;87.40;;;;;;5187966;27;27471;-60
2021/07/17 11:42:00;;;;;;;20.88;13.60;;;23.20;87.20;;;;;;5187626;27;27376;-60
2021/07/17 11:44:53;;;;;;;15.65;13.35;;;23.30;87.50;;;;;;5187948;27;27403;-61
2021/07/17 11:47:38;;;;;;;17.40;13.20;;;23.40;87.50;;;;;;5169390;27;27501;-61
2021/07/17 11:50:22;;;;;;;17.27;12.65;;;23.50;87.90;;;;;;5188063;27;27449;-60
2021/07/17 11:53:17;;;;;;;18.83;14.48;;;23.50;87.90;;;;;;5188064;27;27562;-61
2021/07/17 11:56:02;;;;;;;19.23;13.05;;;23.60;87.90;;;;;;5170976;27;27441;-61
2021/07/17 11:58:47;;;;;;;14.48;12.55;;;23.60;88.00;;;;;;5186459;27;27644;-61
2021/07/17 12:01:32;;;;;;;17.33;13.43;;;23.70;88.20;;;;;;5187972;27;27446;-61
2021/07/17 12:04:47;;;;;;;16.85;11.57;;;23.70;88.10;;;;;;5187177;27;27523;-61
2021/07/17 12:07:32;;;;;;;18.80;14.00;;;23.70;88.30;;;;;;5187689;27;27421;-61
2021/07/17 12:10:21;;;;;;;16.30;13.30;;;23.70;88.80;;;;;;5183375;27;27467;-61
2021/07/17 12:13:06;;;;;;;18.10;14.18;;;23.60;88.00;;;;;;5172161;27;27376;-60
2021/07/17 12:15:51;;;;;;;16.83;13.32;;;23.60;87.10;;;;;;5187853;27;27423;-61
2021/07/17 12:18:36;;;;;;;16.55;12.95;;;23.60;86.50;;;;;;5186716;27;27370;-61
2021/07/17 12:21:22;;;;;;;14.57;11.88;;;23.70;86.20;;;;;;5187038;27;27394;-60
2021/07/17 12:24:07;;;;;;;14.02;12.23;;;23.70;86.60;;;;;;5187111;27;27374;-61
2021/07/17 12:27:00;;;;;;;13.68;12.05;;;23.80;87.30;;;;;;5186622;27;27380;-61
2021/07/17 12:29:49;;;;;;;14.20;12.52;;;23.80;87.60;;;;;;5187722;27;27360;-61
2021/07/17 12:32:33;;;;;;;15.15;11.65;;;23.90;87.80;;;;;;5168677;27;27340;-61
2021/07/17 12:35:22;;;;;;;14.82;11.93;;;24.10;88.30;;;;;;5187265;27;27911;-60
2021/07/17 12:38:15;;;;;;;13.73;12.27;;;24.20;88.70;;;;;;5187260;27;27409;-61
2021/07/17 12:41:06;;;;;;;14.80;12.38;;;24.40;88.80;;;;;;5187627;27;27468;-61
2021/07/17 12:43:52;;;;;;;14.55;12.50;;;24.60;89.10;;;;;;5186414;27;27338;-61
2021/07/17 12:46:40;;;;;;;14.82;13.10;;;24.70;88.70;;;;;;5186686;27;27859;-61
2021/07/17 12:49:25;;;;;;;13.35;11.95;;;24.80;89.40;;;;;;5186520;27;28070;-61
2021/07/17 12:52:10;;;;;;;15.25;11.93;;;24.90;88.00;;;;;;5182983;27;27425;-60
2021/07/17 12:55:05;;;;;;;12.35;10.98;;;24.80;87.00;;;;;;5174460;27;27469;-61
2021/07/17 12:57:50;;;;;;;14.63;12.02;;;24.80;86.90;;;;;;5191004;27;27508;-61
2021/07/17 13:00:34;;;;;;;18.05;12.50;;;24.80;86.50;;;;;;5190676;27;27350;-61
2021/07/17 13:03:19;;;;;;;19.45;12.45;;;24.80;84.40;;;;;;5190994;27;27438;-61
2021/07/17 13:06:10;;;;;;;21.52;12.88;;;24.60;73.10;;;;;;5189995;27;27457;-61
2021/07/17 13:08:56;;;;;;;21.02;12.48;;;24.60;72.70;;;;;;5189674;27;27339;-61
2021/07/17 13:11:41;;;;;;;13.85;12.18;;;24.50;72.80;;;;;;5190296;27;27322;-61
2021/07/17 13:14:26;;;;;;;18.85;13.38;;;24.40;72.80;;;;;;5174989;27;27366;-61
2021/07/17 13:17:18;;;;;;;14.02;12.50;;;24.30;72.80;;;;;;5190438;27;27316;-60
2021/07/17 13:20:10;;;;;;;16.55;13.02;;;24.20;72.30;;;;;;5190391;27;27940;-61
2021/07/17 13:23:00;;;;;;;15.88;12.63;;;24.10;73.10;;;;;;5186202;27;27393;-61
2021/07/17 13:25:45;;;;;;;17.88;13.15;;;24.10;72.80;;;;;;5190282;27;27428;-61
2021/07/17 13:28:30;;;;;;;17.48;12.45;;;24.10;73.10;;;;;;5190575;27;27388;-61
2021/07/17 13:31:19;;;;;;;20.42;13.65;;;24.10;73.10;;;;;;5189926;27;27458;-61
2021/07/17 13:34:17;;;;;;;14.77;12.70;;;24.10;73.00;;;;;;5189346;27;27382;-61
2021/07/17 13:37:10;;;;;;;20.95;12.30;;;24.10;72.80;;;;;;5189532;27;27405;-61
2021/07/17 13:39:58;;;;;;;17.75;13.65;;;24.10;72.30;;;;;;5189488;27;27506;-61
2021/07/17 13:42:47;;;;;;;18.83;12.88;;;24.10;73.00;;;;;;5190016;27;27424;-61
2021/07/17 13:45:32;;;;;;;14.75;12.68;;;24.10;72.70;;;;;;5188806;27;27455;-61
2021/07/17 13:48:19;;;;;;;22.35;13.40;;;24.10;72.50;;;;;;5189191;27;27333;-60
2021/07/17 13:51:05;;;;;;;16.67;12.23;;;24.20;72.30;;;;;;5189848;27;27360;-61
2021/07/17 13:53:50;;;;;;;19.50;13.63;;;24.20;71.60;;;;;;5189692;27;27417;-61
2021/07/17 13:56:37;;;;;;;14.00;12.50;;;24.20;71.10;;;;;;5173958;27;27465;-61
2021/07/17 13:59:28;;;;;;;19.27;13.60;;;24.20;71.80;;;;;;5188994;27;27474;-61
2021/07/17 14:02:12;;;;;;;22.58;13.25;;;24.10;71.70;;;;;;5189046;27;27415;-61